Time;durP1;ratioP1;P1;durP2;ratioP2;P2;SDS_P1;SDS_P2;PMS_P1;PMS_P2;Temp;Humidity;BMP_temperature;BMP_pressure;BME280_temperature;BME280_humidity;BME280_pressure;Samples;Min_cycle;Max_cycle;Signal;HPM_P1;HPM_P2
2024/01/10 00:01:48;;;;;;;3.28;2.80;;;6.90;68.20;;;;;;4978618;28;20040;-88
2024/01/10 00:04:16;;;;;;;3.92;2.75;;;6.80;68.30;;;;;;4968402;28;20038;-86
2024/01/10 00:06:43;;;;;;;4.47;3.00;;;6.90;68.50;;;;;;4979405;28;20396;-87
2024/01/10 00:09:09;;;;;;;3.17;2.60;;;6.90;68.30;;;;;;4974253;28;20092;-87
2024/01/10 00:11:35;;;;;;;3.85;2.85;;;6.80;68.60;;;;;;4962054;28;20035;-86
2024/01/10 00:14:03;;;;;;;3.03;2.60;;;6.90;68.90;;;;;;4995397;28;20056;-91
2024/01/10 00:16:29;;;;;;;3.08;2.55;;;6.90;68.70;;;;;;4964768;28;20073;-92
2024/01/10 00:18:55;;;;;;;2.50;2.05;;;6.80;68.60;;;;;;4979208;28;20120;-92
2024/01/10 00:21:21;;;;;;;3.45;2.45;;;6.90;68.90;;;;;;4963252;28;20057;-90
2024/01/10 00:23:47;;;;;;;2.42;1.98;;;6.90;69.30;;;;;;4963745;28;20099;-90
2024/01/10 00:26:13;;;;;;;2.92;2.38;;;6.90;68.90;;;;;;4964830;28;20054;-90
2024/01/10 00:28:39;;;;;;;3.22;2.00;;;6.90;69.20;;;;;;4964212;28;20030;-91
2024/01/10 00:31:05;;;;;;;2.97;2.30;;;6.90;69.10;;;;;;4980500;28;20039;-91
2024/01/10 00:33:31;;;;;;;2.75;1.80;;;6.80;69.30;;;;;;4982289;28;20034;-86
2024/01/10 00:35:57;;;;;;;2.42;2.05;;;6.90;69.70;;;;;;4982281;28;20042;-91
2024/01/10 00:38:23;;;;;;;2.03;1.60;;;6.90;70.10;;;;;;4963720;28;20044;-91
2024/01/10 00:40:49;;;;;;;2.47;1.85;;;6.80;70.40;;;;;;4973738;28;20945;-90
2024/01/10 00:43:15;;;;;;;2.25;1.73;;;6.90;70.70;;;;;;4965825;28;20525;-92
2024/01/10 00:45:41;;;;;;;2.60;1.70;;;6.80;70.50;;;;;;4967423;28;20044;-90
2024/01/10 00:48:07;;;;;;;1.38;1.27;;;6.80;70.20;;;;;;4984142;28;20061;-91
2024/01/10 00:50:33;;;;;;;1.38;1.20;;;6.80;70.10;;;;;;4969731;28;20041;-91
2024/01/10 00:52:59;;;;;;;1.42;1.27;;;6.90;70.40;;;;;;5002268;28;20065;-90
2024/01/10 00:55:25;;;;;;;1.40;1.30;;;6.90;70.60;;;;;;4968634;28;21036;-89
2024/01/10 00:57:51;;;;;;;2.22;1.42;;;6.90;70.40;;;;;;4967679;28;20068;-90
2024/01/10 01:00:17;;;;;;;1.10;0.90;;;6.90;70.50;;;;;;4967357;28;20393;-89
2024/01/10 01:02:43;;;;;;;1.40;1.25;;;6.90;70.60;;;;;;4969631;28;20045;-89
2024/01/10 01:05:10;;;;;;;1.83;1.20;;;6.80;70.40;;;;;;4982305;28;20448;-89
2024/01/10 01:07:36;;;;;;;0.95;0.90;;;6.90;70.40;;;;;;4978327;28;20035;-89
2024/01/10 01:10:03;;;;;;;1.10;1.00;;;6.80;70.30;;;;;;4964072;28;20080;-88
2024/01/10 01:12:29;;;;;;;2.00;1.02;;;6.90;70.30;;;;;;4998010;28;21258;-87
2024/01/10 01:14:55;;;;;;;0.95;0.88;;;6.90;70.50;;;;;;4981540;28;20034;-87
2024/01/10 01:17:21;;;;;;;1.90;0.90;;;6.90;70.80;;;;;;4982618;28;20120;-88
2024/01/10 01:19:47;;;;;;;0.88;0.88;;;6.90;70.90;;;;;;4980015;28;20030;-87
2024/01/10 01:22:13;;;;;;;0.73;0.65;;;6.80;70.90;;;;;;4981823;28;20111;-87
2024/01/10 01:24:39;;;;;;;0.63;0.57;;;6.80;70.90;;;;;;4997459;28;20034;-87
2024/01/10 01:27:05;;;;;;;0.93;0.68;;;6.80;71.00;;;;;;4982240;28;20046;-86
2024/01/10 01:29:31;;;;;;;0.70;0.57;;;6.80;71.10;;;;;;4998210;28;20526;-87
2024/01/10 01:31:57;;;;;;;0.50;0.50;;;6.80;71.00;;;;;;4981199;28;20030;-88
2024/01/10 01:34:23;;;;;;;0.55;0.55;;;6.80;71.10;;;;;;4964703;28;20460;-88
2024/01/10 01:36:51;;;;;;;0.98;0.82;;;6.80;71.20;;;;;;4996881;28;20038;-86
2024/01/10 01:39:18;;;;;;;1.48;0.57;;;6.80;71.30;;;;;;4981416;28;20026;-86
2024/01/10 01:41:44;;;;;;;1.05;0.50;;;6.80;71.80;;;;;;4981114;28;20037;-86
2024/01/10 01:44:10;;;;;;;0.47;0.40;;;6.80;72.10;;;;;;5002534;28;20430;-85
2024/01/10 01:46:37;;;;;;;0.57;0.32;;;6.80;72.30;;;;;;4976314;28;20038;-86
2024/01/10 01:49:04;;;;;;;0.40;0.40;;;6.80;72.50;;;;;;5013699;28;20038;-86
2024/01/10 01:51:32;;;;;;;0.20;0.20;;;6.80;72.30;;;;;;4998555;28;20048;-89
2024/01/10 01:53:58;;;;;;;0.55;0.30;;;6.80;72.40;;;;;;4997094;28;20408;-89
2024/01/10 01:56:24;;;;;;;0.30;0.30;;;6.80;72.50;;;;;;4980595;28;20366;-90
2024/01/10 01:58:51;;;;;;;0.30;0.30;;;6.80;72.30;;;;;;4998726;28;20034;-90
2024/01/10 02:01:22;;;;;;;1.50;0.30;;;6.80;72.20;;;;;;4965788;28;20031;-89
2024/01/10 02:03:48;;;;;;;0.63;0.25;;;6.80;72.20;;;;;;4969258;28;20401;-90
2024/01/10 02:06:14;;;;;;;1.30;0.30;;;6.80;71.90;;;;;;4982342;28;20031;-89
2024/01/10 02:08:40;;;;;;;0.38;0.30;;;6.80;72.00;;;;;;4975815;28;20034;-90
2024/01/10 02:11:07;;;;;;;0.30;0.30;;;6.80;72.00;;;;;;4979295;28;20096;-87
2024/01/10 02:13:33;;;;;;;1.17;0.32;;;6.80;71.80;;;;;;5014562;28;20053;-89
2024/01/10 02:16:00;;;;;;;0.50;0.22;;;6.80;72.00;;;;;;4959671;28;20513;-88
2024/01/10 02:18:26;;;;;;;0.45;0.30;;;6.80;71.60;;;;;;4976472;28;20133;-86
2024/01/10 02:20:52;;;;;;;0.35;0.30;;;6.80;71.40;;;;;;4963845;28;20041;-87
2024/01/10 02:23:18;;;;;;;0.82;0.20;;;6.80;71.40;;;;;;4997093;28;20061;-87
2024/01/10 02:25:45;;;;;;;0.35;0.25;;;6.80;71.50;;;;;;4980497;28;20045;-88
2024/01/10 02:28:11;;;;;;;0.30;0.30;;;6.80;71.30;;;;;;4969101;28;20034;-86
2024/01/10 02:30:37;;;;;;;0.63;0.40;;;6.80;71.40;;;;;;4980379;28;20038;-87
2024/01/10 02:33:04;;;;;;;0.20;0.20;;;6.80;71.20;;;;;;4976873;28;20092;-88
2024/01/10 02:35:32;;;;;;;0.20;0.20;;;6.80;71.00;;;;;;4980040;28;20453;-87
2024/01/10 02:37:59;;;;;;;0.20;0.20;;;6.80;71.00;;;;;;4980114;28;20039;-87
2024/01/10 02:40:25;;;;;;;0.20;0.20;;;6.80;70.70;;;;;;4965136;28;20651;-89
2024/01/10 02:42:52;;;;;;;0.20;0.20;;;6.80;70.70;;;;;;4980854;28;20033;-90
2024/01/10 02:45:18;;;;;;;0.20;0.20;;;6.80;70.50;;;;;;4981625;28;20080;-91
2024/01/10 02:47:45;;;;;;;0.17;0.17;;;6.80;70.50;;;;;;4981315;28;20512;-91
2024/01/10 02:50:11;;;;;;;0.30;0.30;;;6.80;70.50;;;;;;4970756;28;20401;-86
2024/01/10 02:52:37;;;;;;;1.15;0.20;;;6.80;70.60;;;;;;4980759;28;20486;-86
2024/01/10 02:55:03;;;;;;;0.40;0.20;;;6.80;70.20;;;;;;4974797;28;20041;-85
2024/01/10 02:57:30;;;;;;;0.40;0.30;;;6.80;70.00;;;;;;4997860;28;20057;-84
2024/01/10 02:59:55;;;;;;;0.17;0.13;;;6.80;70.00;;;;;;4996671;28;20034;-85
2024/01/10 03:02:23;;;;;;;0.40;0.30;;;6.80;69.70;;;;;;4977632;28;20575;-87
2024/01/10 03:04:49;;;;;;;0.70;0.40;;;6.80;69.60;;;;;;4976355;28;20042;-87
2024/01/10 03:07:15;;;;;;;0.65;0.65;;;6.80;69.40;;;;;;4973008;28;20107;-88
2024/01/10 03:09:42;;;;;;;0.80;0.80;;;6.80;69.30;;;;;;4964536;28;20048;-87
2024/01/10 03:12:10;;;;;;;3.03;1.30;;;6.80;68.90;;;;;;4963791;28;20036;-86
2024/01/10 03:14:36;;;;;;;8.38;2.17;;;6.80;68.30;;;;;;4964959;28;20034;-86
2024/01/10 03:17:03;;;;;;;6.05;2.40;;;6.80;67.70;;;;;;4979458;28;20181;-85
2024/01/10 03:19:29;;;;;;;3.67;2.55;;;6.70;67.00;;;;;;4973555;28;20054;-85
2024/01/10 03:21:55;;;;;;;5.03;2.90;;;6.70;66.60;;;;;;4983595;28;20123;-85
2024/01/10 03:24:24;;;;;;;5.40;2.92;;;6.70;66.40;;;;;;4967695;28;20076;-85
2024/01/10 03:26:49;;;;;;;4.75;3.05;;;6.70;66.00;;;;;;4991033;28;20049;-88
2024/01/10 03:29:15;;;;;;;6.03;3.30;;;6.60;65.70;;;;;;4995366;28;20096;-88
2024/01/10 03:31:42;;;;;;;4.03;3.40;;;6.60;65.70;;;;;;4979116;28;20100;-88
2024/01/10 03:34:07;;;;;;;4.78;3.65;;;6.60;65.60;;;;;;4963523;28;20177;-90
2024/01/10 03:36:33;;;;;;;5.32;3.83;;;6.60;65.80;;;;;;4962411;28;20507;-88
2024/01/10 03:39:00;;;;;;;6.15;3.75;;;6.50;64.40;;;;;;4983235;28;20031;-89
2024/01/10 03:41:26;;;;;;;4.18;3.35;;;6.50;64.40;;;;;;4974851;28;20180;-89
2024/01/10 03:43:52;;;;;;;5.35;3.58;;;6.50;64.40;;;;;;4963427;28;20068;-88
2024/01/10 03:46:18;;;;;;;4.43;3.50;;;6.50;64.10;;;;;;4995134;28;20305;-84
2024/01/10 03:48:47;;;;;;;4.72;3.50;;;6.50;63.90;;;;;;4994987;28;20091;-81
2024/01/10 03:51:17;;;;;;;4.25;3.22;;;6.50;63.90;;;;;;4993074;28;20798;-80
2024/01/10 03:53:48;;;;;;;4.95;3.55;;;6.40;63.80;;;;;;4996437;28;20389;-80
2024/01/10 03:56:15;;;;;;;4.55;3.65;;;6.40;63.80;;;;;;4994135;28;20046;-81
2024/01/10 03:58:41;;;;;;;4.60;3.88;;;6.40;63.90;;;;;;4991346;28;20480;-80
2024/01/10 04:01:08;;;;;;;7.13;3.50;;;6.40;63.80;;;;;;4989327;28;20065;-78
2024/01/10 04:03:35;;;;;;;3.97;3.22;;;6.40;63.80;;;;;;4981780;28;20069;-78
2024/01/10 04:06:02;;;;;;;4.88;3.80;;;6.40;63.80;;;;;;4975155;28;20018;-81
2024/01/10 04:08:28;;;;;;;4.60;3.30;;;6.40;63.90;;;;;;4996409;28;20034;-80
2024/01/10 04:10:54;;;;;;;4.47;3.38;;;6.40;64.10;;;;;;4991840;28;20034;-81
2024/01/10 04:13:21;;;;;;;6.88;4.05;;;6.40;64.30;;;;;;4978010;28;20034;-80
2024/01/10 04:15:47;;;;;;;4.47;3.65;;;6.40;64.20;;;;;;4994361;28;20165;-80
2024/01/10 04:18:13;;;;;;;4.40;3.55;;;6.40;64.40;;;;;;4995547;28;20433;-83
2024/01/10 04:20:39;;;;;;;4.68;3.67;;;6.40;64.30;;;;;;4992710;28;20043;-83
2024/01/10 04:23:04;;;;;;;3.88;3.38;;;6.30;64.00;;;;;;4994497;28;20034;-82
2024/01/10 04:25:30;;;;;;;4.88;4.03;;;6.40;63.60;;;;;;4994098;28;20031;-82
2024/01/10 04:27:59;;;;;;;5.47;4.05;;;6.30;63.40;;;;;;4994845;28;20045;-82
2024/01/10 04:30:25;;;;;;;5.10;3.78;;;6.30;63.30;;;;;;4996790;28;20117;-82
2024/01/10 04:32:51;;;;;;;5.22;3.88;;;6.30;63.30;;;;;;4992445;28;20124;-83
2024/01/10 04:35:17;;;;;;;3.83;3.47;;;6.30;63.30;;;;;;4993197;28;20038;-81
2024/01/10 04:37:43;;;;;;;5.28;3.38;;;6.20;63.40;;;;;;4993184;28;20030;-80
2024/01/10 04:40:10;;;;;;;4.63;3.40;;;6.20;63.50;;;;;;4992184;28;20040;-84
2024/01/10 04:42:36;;;;;;;4.05;3.33;;;6.20;63.50;;;;;;4986616;28;20030;-81
2024/01/10 04:45:02;;;;;;;6.30;3.63;;;6.10;63.40;;;;;;4994112;28;20184;-82
2024/01/10 04:47:30;;;;;;;4.20;3.42;;;6.10;63.40;;;;;;4991810;28;20459;-81
2024/01/10 04:49:56;;;;;;;4.65;3.42;;;6.10;63.50;;;;;;4976382;28;20466;-83
2024/01/10 04:52:22;;;;;;;3.60;3.28;;;6.10;63.60;;;;;;4994707;28;20062;-91
2024/01/10 04:54:48;;;;;;;5.70;3.58;;;6.10;63.90;;;;;;4983184;28;20038;-82
2024/01/10 04:57:14;;;;;;;5.30;3.85;;;6.10;63.90;;;;;;4984066;28;20112;-85
2024/01/10 04:59:40;;;;;;;4.75;3.90;;;6.00;64.30;;;;;;4962505;28;20580;-85
2024/01/10 05:02:06;;;;;;;5.40;3.30;;;6.10;64.40;;;;;;4994145;28;20169;-85
2024/01/10 05:04:32;;;;;;;5.20;3.58;;;6.10;64.50;;;;;;4979136;28;20062;-83
2024/01/10 05:06:58;;;;;;;7.47;3.75;;;6.00;64.70;;;;;;4971341;28;20066;-82
2024/01/10 05:09:24;;;;;;;4.78;3.75;;;6.00;64.90;;;;;;4994474;28;20061;-82
2024/01/10 05:11:51;;;;;;;5.25;4.00;;;6.00;65.10;;;;;;4992952;28;20046;-81
2024/01/10 05:14:21;;;;;;;4.55;3.50;;;6.10;65.30;;;;;;4993696;28;20382;-81
2024/01/10 05:16:49;;;;;;;5.30;3.50;;;6.10;65.40;;;;;;4993541;28;20045;-79
2024/01/10 05:19:16;;;;;;;10.10;4.50;;;6.00;65.30;;;;;;4993304;28;20117;-81
2024/01/10 05:21:42;;;;;;;4.90;3.88;;;6.00;65.10;;;;;;4994529;28;20037;-81
2024/01/10 05:24:08;;;;;;;5.80;4.25;;;6.00;65.10;;;;;;4994672;28;20026;-81
2024/01/10 05:26:34;;;;;;;6.38;4.60;;;6.10;65.10;;;;;;5010042;28;20398;-81
2024/01/10 05:29:00;;;;;;;5.43;4.20;;;6.00;65.10;;;;;;4994350;28;20026;-81
2024/01/10 05:31:26;;;;;;;4.90;3.75;;;6.00;65.00;;;;;;4996033;28;20046;-81
2024/01/10 05:33:53;;;;;;;9.80;4.18;;;6.00;65.00;;;;;;5014473;28;20030;-81
2024/01/10 05:36:25;;;;;;;5.32;3.60;;;6.00;65.00;;;;;;5014494;28;20042;-81
2024/01/10 05:38:52;;;;;;;4.38;3.28;;;6.00;64.80;;;;;;4998626;28;20525;-81
2024/01/10 05:41:18;;;;;;;4.90;3.88;;;6.00;64.70;;;;;;4997356;28;20153;-81
2024/01/10 05:43:44;;;;;;;4.25;3.30;;;5.90;64.50;;;;;;4998749;28;20157;-81
2024/01/10 05:46:10;;;;;;;4.80;3.63;;;5.90;64.50;;;;;;4995523;28;20034;-81
2024/01/10 05:48:36;;;;;;;4.22;3.47;;;5.90;64.50;;;;;;4997856;28;20034;-81
2024/01/10 05:51:03;;;;;;;5.15;3.40;;;5.90;64.60;;;;;;4995269;28;20074;-82
2024/01/10 05:53:29;;;;;;;3.90;3.47;;;5.90;65.00;;;;;;4996826;28;20092;-82
2024/01/10 05:55:55;;;;;;;4.18;2.97;;;5.80;64.40;;;;;;4997506;28;20141;-87
2024/01/10 05:58:21;;;;;;;4.28;3.28;;;5.90;64.60;;;;;;4964131;28;20061;-85
2024/01/10 06:00:47;;;;;;;4.20;3.47;;;5.80;64.50;;;;;;4976861;28;20034;-84
2024/01/10 06:03:13;;;;;;;3.08;2.75;;;5.80;64.40;;;;;;4997454;28;20034;-85
2024/01/10 06:05:40;;;;;;;3.80;2.97;;;5.80;64.30;;;;;;4967675;28;20081;-80
2024/01/10 06:08:06;;;;;;;4.88;3.33;;;5.80;64.20;;;;;;4998514;28;21452;-79
2024/01/10 06:10:32;;;;;;;4.68;3.30;;;5.80;64.00;;;;;;5012603;28;20034;-79
2024/01/10 06:12:58;;;;;;;4.97;3.65;;;5.80;63.60;;;;;;4974048;28;20779;-80
2024/01/10 06:15:25;;;;;;;5.47;3.72;;;5.80;63.20;;;;;;4979441;28;20092;-80
2024/01/10 06:17:51;;;;;;;5.05;3.15;;;5.80;62.90;;;;;;4996556;28;20030;-80
2024/01/10 06:20:18;;;;;;;4.18;3.22;;;5.80;62.70;;;;;;4996790;28;20122;-80
2024/01/10 06:22:46;;;;;;;4.47;3.13;;;5.80;62.70;;;;;;4994784;28;20084;-80
2024/01/10 06:25:12;;;;;;;4.38;3.20;;;5.80;62.70;;;;;;4982693;28;20037;-80
2024/01/10 06:27:39;;;;;;;3.95;2.90;;;5.80;62.40;;;;;;4992648;28;20049;-80
2024/01/10 06:30:07;;;;;;;3.58;3.00;;;5.80;62.40;;;;;;4992599;28;20033;-80
2024/01/10 06:32:33;;;;;;;3.90;2.95;;;5.80;62.20;;;;;;4994976;28;20045;-80
2024/01/10 06:35:01;;;;;;;4.55;3.22;;;5.80;62.20;;;;;;4996985;28;20046;-80
2024/01/10 06:37:28;;;;;;;5.75;2.58;;;5.80;62.20;;;;;;4995868;28;20046;-80
2024/01/10 06:39:54;;;;;;;4.63;3.10;;;5.70;62.20;;;;;;4997709;28;20461;-80
2024/01/10 06:42:20;;;;;;;3.10;2.80;;;5.70;62.40;;;;;;4992279;28;20038;-79
2024/01/10 06:44:46;;;;;;;5.22;3.20;;;5.70;63.10;;;;;;4991849;28;20038;-80
2024/01/10 06:47:12;;;;;;;4.07;2.80;;;5.60;62.60;;;;;;4983177;28;20382;-79
2024/01/10 06:49:38;;;;;;;3.08;2.75;;;5.70;62.60;;;;;;4997468;28;20651;-80
2024/01/10 06:52:07;;;;;;;3.15;2.40;;;5.70;62.50;;;;;;4992965;28;20544;-80
2024/01/10 06:54:33;;;;;;;3.15;2.60;;;5.60;62.60;;;;;;4979858;28;20034;-80
2024/01/10 06:56:59;;;;;;;3.58;2.60;;;5.60;62.70;;;;;;4994975;28;20050;-80
2024/01/10 06:59:25;;;;;;;3.72;3.25;;;5.60;62.80;;;;;;4995889;28;20037;-81
2024/01/10 07:01:53;;;;;;;3.30;3.00;;;5.60;62.90;;;;;;4992326;28;20465;-83
2024/01/10 07:04:22;;;;;;;3.53;2.75;;;5.60;62.90;;;;;;5011536;28;20476;-85
2024/01/10 07:06:48;;;;;;;4.43;3.00;;;5.60;62.80;;;;;;4980189;28;20034;-85
2024/01/10 07:09:19;;;;;;;3.75;2.63;;;5.60;62.70;;;;;;4974311;28;20026;-85
2024/01/10 07:11:49;;;;;;;3.25;2.75;;;5.60;62.80;;;;;;4955810;28;20033;-84
2024/01/10 07:14:16;;;;;;;4.03;2.85;;;5.60;62.90;;;;;;4994042;28;20157;-80
2024/01/10 07:16:45;;;;;;;3.30;2.50;;;5.70;63.00;;;;;;4995311;28;20762;-79
2024/01/10 07:19:13;;;;;;;3.30;2.60;;;5.60;63.00;;;;;;4996194;28;20466;-78
2024/01/10 07:21:42;;;;;;;4.07;2.75;;;5.70;63.00;;;;;;4977629;28;20099;-79
2024/01/10 07:24:09;;;;;;;3.30;2.20;;;5.70;63.30;;;;;;4981491;28;20061;-77
2024/01/10 07:26:36;;;;;;;3.28;2.13;;;5.70;66.40;;;;;;4991460;28;20545;-77
2024/01/10 07:29:02;;;;;;;3.10;1.67;;;5.90;75.20;;;;;;4976811;28;21296;-76
2024/01/10 07:31:29;;;;;;;3.17;1.85;;;6.10;80.70;;;;;;4993070;28;20030;-77
2024/01/10 07:33:58;;;;;;;1.90;1.30;;;6.20;83.70;;;;;;4994111;28;20039;-77
2024/01/10 07:36:29;;;;;;;3.85;1.70;;;6.40;86.20;;;;;;4994931;28;20477;-77
2024/01/10 07:38:59;;;;;;;3.22;1.60;;;6.60;88.60;;;;;;4994001;28;20035;-77
2024/01/10 07:41:25;;;;;;;3.28;1.65;;;6.80;90.00;;;;;;4992500;28;20512;-76
2024/01/10 07:43:51;;;;;;;4.47;1.70;;;7.00;90.30;;;;;;4993782;28;20042;-76
2024/01/10 07:46:17;;;;;;;2.88;1.63;;;7.20;90.50;;;;;;4991737;28;20448;-76
2024/01/10 07:48:43;;;;;;;2.88;2.03;;;7.40;90.70;;;;;;4993427;28;20041;-75
2024/01/10 07:51:09;;;;;;;2.95;1.85;;;7.50;90.80;;;;;;4994641;28;20030;-82
2024/01/10 07:53:36;;;;;;;2.20;2.00;;;7.70;85.10;;;;;;4976038;28;20045;-83
2024/01/10 07:56:02;;;;;;;3.47;2.30;;;7.60;80.20;;;;;;4995087;28;20061;-82
2024/01/10 07:58:28;;;;;;;3.35;2.30;;;7.60;78.00;;;;;;4995162;28;20065;-83
2024/01/10 08:00:54;;;;;;;2.97;2.20;;;7.50;76.30;;;;;;4977043;28;20074;-83
2024/01/10 08:03:20;;;;;;;4.03;2.50;;;7.50;74.90;;;;;;4991114;28;20053;-84
2024/01/10 08:05:46;;;;;;;3.45;2.85;;;7.50;73.80;;;;;;4973588;28;20062;-84
2024/01/10 08:08:13;;;;;;;4.65;2.50;;;7.50;72.80;;;;;;4963306;28;20462;-84
2024/01/10 08:10:39;;;;;;;3.72;2.80;;;7.50;72.10;;;;;;4965325;28;20042;-82
2024/01/10 08:13:06;;;;;;;4.90;2.50;;;7.50;71.60;;;;;;4994065;28;20053;-83
2024/01/10 08:15:34;;;;;;;3.42;2.30;;;7.50;70.90;;;;;;4979335;28;20030;-82
2024/01/10 08:18:02;;;;;;;2.58;2.05;;;7.40;70.70;;;;;;4994268;28;20088;-83
2024/01/10 08:20:29;;;;;;;2.58;2.20;;;7.40;70.20;;;;;;4995388;28;20030;-84
2024/01/10 08:22:55;;;;;;;3.47;2.42;;;7.50;69.90;;;;;;4993719;28;20043;-82
2024/01/10 08:25:22;;;;;;;4.63;2.28;;;7.40;69.10;;;;;;4966360;28;20056;-80
2024/01/10 08:27:48;;;;;;;2.60;2.08;;;7.40;68.90;;;;;;4994650;28;20042;-82
2024/01/10 08:30:15;;;;;;;3.25;2.17;;;7.30;68.10;;;;;;4997333;28;20030;-83
2024/01/10 08:32:41;;;;;;;2.92;2.30;;;7.30;67.90;;;;;;4990860;28;20137;-82
2024/01/10 08:35:10;;;;;;;3.42;2.33;;;7.30;67.70;;;;;;4994975;28;20076;-83
2024/01/10 08:37:37;;;;;;;3.90;2.67;;;7.20;67.40;;;;;;4976765;28;20383;-83
2024/01/10 08:40:09;;;;;;;2.95;2.08;;;7.20;66.80;;;;;;4993984;28;20078;-84
2024/01/10 08:42:35;;;;;;;3.58;2.10;;;7.20;66.60;;;;;;4994115;28;20501;-84
2024/01/10 08:45:02;;;;;;;2.90;2.10;;;7.20;67.10;;;;;;4995540;28;20168;-84
2024/01/10 08:47:31;;;;;;;3.30;2.10;;;7.10;66.10;;;;;;4995026;28;20042;-83
2024/01/10 08:49:57;;;;;;;2.72;2.28;;;7.10;66.10;;;;;;4991992;28;20482;-83
2024/01/10 08:52:23;;;;;;;3.30;2.10;;;7.10;66.30;;;;;;4960739;28;21480;-81
2024/01/10 08:54:49;;;;;;;4.15;2.53;;;7.10;65.20;;;;;;4995035;28;20799;-82
2024/01/10 08:57:15;;;;;;;3.83;2.10;;;7.10;64.30;;;;;;4995149;28;20057;-81
2024/01/10 08:59:42;;;;;;;3.00;1.95;;;7.10;63.80;;;;;;4995721;28;20515;-80
2024/01/10 09:02:08;;;;;;;2.75;2.00;;;7.00;63.60;;;;;;4978596;28;20058;-82
2024/01/10 09:04:34;;;;;;;3.13;2.40;;;7.00;63.20;;;;;;4980820;28;20058;-81
2024/01/10 09:07:00;;;;;;;2.42;2.03;;;7.00;63.10;;;;;;4997534;28;20042;-82
2024/01/10 09:09:26;;;;;;;2.53;2.00;;;7.00;62.80;;;;;;4997951;28;20026;-83
2024/01/10 09:11:52;;;;;;;4.38;2.72;;;6.90;62.50;;;;;;4980370;28;20041;-83
2024/01/10 09:14:18;;;;;;;2.58;2.25;;;6.90;62.30;;;;;;4999266;28;20040;-83
2024/01/10 09:16:44;;;;;;;3.30;2.10;;;6.90;62.20;;;;;;4999191;28;20505;-82
2024/01/10 09:19:10;;;;;;;3.40;2.35;;;6.80;62.00;;;;;;4969299;28;20117;-82
2024/01/10 09:21:36;;;;;;;2.72;2.08;;;6.80;62.10;;;;;;4995569;28;20129;-82
2024/01/10 09:24:08;;;;;;;4.28;2.85;;;6.80;62.10;;;;;;4997603;28;21461;-80
2024/01/10 09:26:34;;;;;;;4.28;2.55;;;6.80;62.10;;;;;;4996401;28;20038;-82
2024/01/10 09:29:00;;;;;;;4.82;2.60;;;6.80;62.00;;;;;;4981142;28;20034;-81
2024/01/10 09:31:26;;;;;;;2.65;2.33;;;6.70;61.80;;;;;;4997245;28;20417;-83
2024/01/10 09:33:52;;;;;;;3.10;2.30;;;6.70;61.80;;;;;;4980104;28;20034;-80
2024/01/10 09:36:18;;;;;;;3.10;2.30;;;6.60;61.80;;;;;;4996413;28;20045;-79
2024/01/10 09:38:44;;;;;;;3.05;2.15;;;6.60;61.60;;;;;;5010307;28;20041;-79
2024/01/10 09:41:14;;;;;;;3.65;2.50;;;6.60;61.80;;;;;;4980875;28;20382;-79
2024/01/10 09:43:40;;;;;;;3.97;2.70;;;6.50;61.70;;;;;;4995829;28;20413;-79
2024/01/10 09:46:08;;;;;;;3.83;2.60;;;6.50;61.80;;;;;;4996097;28;20057;-78
2024/01/10 09:48:34;;;;;;;4.18;2.80;;;6.50;61.80;;;;;;4996564;28;20041;-79
2024/01/10 09:51:00;;;;;;;6.60;3.53;;;6.50;61.90;;;;;;4995246;28;20022;-80
2024/01/10 09:53:27;;;;;;;5.78;3.80;;;6.40;61.80;;;;;;4996951;28;20042;-80
2024/01/10 09:55:56;;;;;;;6.72;4.10;;;6.40;62.10;;;;;;4996525;28;20045;-80
2024/01/10 09:58:26;;;;;;;6.15;3.83;;;6.40;62.10;;;;;;4994572;28;20216;-79
2024/01/10 10:00:53;;;;;;;5.38;3.80;;;6.40;62.10;;;;;;4995071;28;20520;-79
2024/01/10 10:03:19;;;;;;;5.00;3.63;;;6.30;62.30;;;;;;4995590;28;20145;-79
2024/01/10 10:05:45;;;;;;;5.85;3.83;;;6.30;62.10;;;;;;4995188;28;20041;-79
2024/01/10 10:08:21;;;;;;;4.63;3.28;;;6.30;61.90;;;;;;4994366;28;20030;-79
2024/01/10 10:10:51;;;;;;;4.88;3.40;;;6.30;61.90;;;;;;4993684;28;20050;-78
2024/01/10 10:13:29;;;;;;;5.10;3.33;;;6.20;61.80;;;;;;4997073;28;20544;-78
2024/01/10 10:16:03;;;;;;;5.68;3.58;;;6.20;62.10;;;;;;4995592;28;20054;-79
2024/01/10 10:18:31;;;;;;;4.90;3.45;;;6.20;62.30;;;;;;4994297;28;20126;-77
2024/01/10 10:21:30;;;;;;;4.85;3.35;;;6.10;62.30;;;;;;4993878;28;20501;-78
2024/01/10 10:24:01;;;;;;;4.93;3.10;;;6.10;62.70;;;;;;4995878;28;20034;-83
2024/01/10 10:26:29;;;;;;;2.78;2.25;;;6.10;65.40;;;;;;4997923;28;20135;-82
2024/01/10 10:28:55;;;;;;;5.75;2.72;;;6.30;78.80;;;;;;4996548;28;20041;-83
2024/01/10 10:31:23;;;;;;;4.72;2.55;;;6.50;87.10;;;;;;4979478;28;20045;-83
2024/01/10 10:33:52;;;;;;;3.33;2.10;;;6.70;90.30;;;;;;4994064;28;20415;-80
2024/01/10 10:36:20;;;;;;;4.05;2.42;;;6.80;86.10;;;;;;4995097;28;20039;-80
2024/01/10 10:38:49;;;;;;;4.60;2.35;;;6.80;81.00;;;;;;4991628;28;20035;-79
2024/01/10 10:41:16;;;;;;;3.13;2.45;;;6.80;78.60;;;;;;4994028;28;20611;-80
2024/01/10 10:43:42;;;;;;;4.18;2.67;;;6.70;77.10;;;;;;4995784;28;20034;-79
2024/01/10 10:46:09;;;;;;;4.38;2.90;;;6.70;75.80;;;;;;4995900;28;20053;-80
2024/01/10 10:48:36;;;;;;;5.38;2.90;;;6.70;74.10;;;;;;4978443;28;20030;-80
2024/01/10 10:51:09;;;;;;;3.58;2.97;;;6.70;73.00;;;;;;4994439;28;20027;-79
2024/01/10 10:53:36;;;;;;;5.03;3.13;;;6.70;71.70;;;;;;4993371;28;20034;-80
2024/01/10 10:56:05;;;;;;;5.07;3.00;;;6.60;70.50;;;;;;4996256;28;20046;-80
2024/01/10 10:58:42;;;;;;;4.53;3.00;;;6.60;69.70;;;;;;4965768;28;20039;-80
2024/01/10 11:01:10;;;;;;;5.53;3.22;;;6.60;68.90;;;;;;4983013;28;20038;-80
2024/01/10 11:03:41;;;;;;;4.32;3.00;;;6.60;68.40;;;;;;4996073;28;20038;-80
2024/01/10 11:06:08;;;;;;;4.47;3.15;;;6.50;67.90;;;;;;4994738;28;20516;-80
2024/01/10 11:08:38;;;;;;;3.92;2.95;;;6.50;67.50;;;;;;4994069;28;20521;-80
2024/01/10 11:11:26;;;;;;;4.85;3.40;;;6.50;67.20;;;;;;4959894;28;20042;-80
2024/01/10 11:14:21;;;;;;;3.95;3.35;;;6.40;66.90;;;;;;4993658;28;20038;-80
2024/01/10 11:16:56;;;;;;;5.18;3.13;;;6.40;66.80;;;;;;4995485;28;20042;-81
2024/01/10 11:19:42;;;;;;;4.60;3.53;;;6.40;66.70;;;;;;4994603;28;20047;-81
2024/01/10 11:22:50;;;;;;;5.35;3.40;;;6.30;66.60;;;;;;4976529;28;20030;-80
2024/01/10 11:25:17;;;;;;;5.18;3.30;;;6.30;66.50;;;;;;4994233;28;20061;-81
2024/01/10 11:27:43;;;;;;;4.22;3.67;;;6.30;66.50;;;;;;4994685;28;20059;-81
2024/01/10 11:30:11;;;;;;;4.90;3.72;;;6.20;66.40;;;;;;4994912;28;20100;-81
2024/01/10 11:32:37;;;;;;;5.70;3.30;;;6.20;66.40;;;;;;4993651;28;20039;-79
2024/01/10 11:35:21;;;;;;;5.28;3.83;;;6.20;66.30;;;;;;4989291;28;21424;-80
2024/01/10 11:37:50;;;;;;;3.75;3.38;;;6.20;66.20;;;;;;4995610;28;20136;-80
2024/01/10 11:40:44;;;;;;;5.75;3.50;;;6.20;66.10;;;;;;4994676;28;20116;-79
2024/01/10 11:43:14;;;;;;;5.43;4.07;;;6.10;66.00;;;;;;4994849;28;20554;-81
2024/01/10 11:46:00;;;;;;;4.50;3.40;;;6.10;65.80;;;;;;4995872;28;20068;-81
2024/01/10 11:48:27;;;;;;;4.70;3.50;;;6.10;65.80;;;;;;4995499;28;20374;-81
2024/01/10 11:50:54;;;;;;;3.72;3.10;;;6.00;65.70;;;;;;4993662;28;20509;-79
2024/01/10 11:53:46;;;;;;;3.80;3.13;;;6.00;65.70;;;;;;4994259;28;20030;-80
2024/01/10 11:56:17;;;;;;;5.00;3.40;;;6.00;66.20;;;;;;4995356;28;20051;-80
2024/01/10 11:59:21;;;;;;;5.05;3.30;;;6.00;65.30;;;;;;4995104;28;20050;-80
2024/01/10 12:01:47;;;;;;;3.63;3.20;;;5.90;65.30;;;;;;4990622;28;20049;-80
2024/01/10 12:04:14;;;;;;;5.18;3.65;;;5.90;65.10;;;;;;4993313;28;20558;-80
2024/01/10 12:06:41;;;;;;;5.25;3.72;;;5.90;65.20;;;;;;4994892;28;20033;-80
2024/01/10 12:09:09;;;;;;;4.93;3.75;;;5.90;65.10;;;;;;4993818;28;20416;-79
2024/01/10 12:11:36;;;;;;;4.75;3.80;;;5.90;65.30;;;;;;4993683;28;20165;-80
2024/01/10 12:14:02;;;;;;;4.53;3.70;;;5.80;65.10;;;;;;4973235;28;20037;-80
2024/01/10 12:16:31;;;;;;;4.75;3.63;;;5.80;65.00;;;;;;4995037;28;20034;-81
2024/01/10 12:18:57;;;;;;;4.40;3.55;;;5.80;65.00;;;;;;4965498;28;20068;-81
2024/01/10 12:21:23;;;;;;;4.60;3.60;;;5.80;65.00;;;;;;4995095;28;20063;-81
2024/01/10 12:23:51;;;;;;;4.90;3.75;;;5.80;64.90;;;;;;4992952;28;20041;-81
2024/01/10 12:26:18;;;;;;;5.43;3.25;;;5.70;64.70;;;;;;4995327;28;20046;-80
2024/01/10 12:28:58;;;;;;;5.50;3.78;;;5.70;64.70;;;;;;4993053;28;20442;-81
2024/01/10 12:31:27;;;;;;;4.78;3.90;;;5.70;64.70;;;;;;4996989;28;20038;-81
2024/01/10 12:33:55;;;;;;;4.57;3.70;;;5.70;64.60;;;;;;4977651;28;20089;-81
2024/01/10 12:36:21;;;;;;;5.00;3.53;;;5.60;64.60;;;;;;4993736;28;20378;-80
2024/01/10 12:38:47;;;;;;;4.93;3.70;;;5.60;64.60;;;;;;4995143;28;20038;-80
2024/01/10 12:41:18;;;;;;;6.38;4.25;;;5.60;64.60;;;;;;4997191;28;20070;-80
2024/01/10 12:43:50;;;;;;;4.30;3.50;;;5.60;64.70;;;;;;4999612;28;20752;-80
2024/01/10 12:46:16;;;;;;;5.72;3.97;;;5.60;65.20;;;;;;4978278;28;20521;-80
2024/01/10 12:48:42;;;;;;;6.15;3.97;;;5.50;64.70;;;;;;4997140;28;20038;-80
2024/01/10 12:51:10;;;;;;;5.28;3.83;;;5.50;64.70;;;;;;4997375;28;20493;-78
2024/01/10 12:53:39;;;;;;;5.22;4.15;;;5.50;65.20;;;;;;4999632;28;20497;-85
2024/01/10 12:56:06;;;;;;;7.88;3.78;;;5.50;65.00;;;;;;4996572;28;20412;-80
2024/01/10 12:58:34;;;;;;;6.63;4.32;;;5.50;65.00;;;;;;4998839;28;20172;-80
2024/01/10 13:01:01;;;;;;;5.00;3.60;;;5.40;65.10;;;;;;4996792;28;20069;-81